x

West Santa Barbara 38 Nm West Of Santa Barbara, Ca (46054) Wave Buoy

9:50am - Wed 30th Jul 2014 All times are PDT. -7 hours from GMT.

  • Sig Wave height 4.3ft
  • Swell Direction
  • Peak Period 5s
  • Average Period 5s
  • Wind
    20mph, 25mph gusts
  • Sea Temp 61°f
  • Air Temp 60°f
  • Sea Pressure 1014.8mb
  • West Santa Barbara  38 Nm West Of Santa Barbara, Ca
  • West Santa Barbara  38 Nm West Of Santa Barbara, Ca

More Historic Weather Station data

Upgrade to MSW Pro to gain access to the past 30 days of data for over 8000 Wavebouys and Weather Stations around the globe.

Join Pro

Comparision Forecast

View Surf forecast
   
Wed 07/30 9:50am 4.5ft 5s 5s 20 25 mph 1014.8mb 61f 60f
8:50am 4.5ft 5s 5s 18 20 mph 1014.8mb 61f 60f
7:50am 4.5ft 4s 5s 22 25 mph 1014mb 61f 60f
6:50am 5ft 5s 5s 20 27 mph 1013.9mb 61f 61f
5:50am 4.5ft 5s 5s 22 27 mph 1013.5mb 61f 60f
4:50am 5ft 5s 5s 25 27 mph 1013.3mb 61f 61f
3:50am 4.5ft 5s 5s 22 27 mph 1013.1mb 61f 60f
2:50am 4.5ft 5s 5s 22 27 mph 1013.4mb 61f 61f
1:50am 4.5ft 4s 5s 25 29 mph 1013.3mb 61f 61f
12:50am 4.5ft 5s 5s 20 22 mph 1013.9mb 61f 62f
Tue 07/29 11:50pm 4.5ft 5s 5s 22 25 mph 1014.3mb 61f 62f
10:50pm 4.5ft 4s 5s 20 25 mph 1014.4mb 61f 62f
9:50pm 4.5ft 8s 5s 20 25 mph 1014.4mb 61f 62f
8:50pm 4ft 9s 5s 22 25 mph 1014.2mb 61f 63f
7:50pm 4.5ft 4s 4s 22 27 mph 1013.8mb 61f 63f
6:50pm 4.5ft 4s 4s 25 27 mph 1013.9mb 62f 63f
5:50pm 4ft 5s 4s 22 27 mph 1014.1mb 62f 63f
4:50pm 4ft 9s 4s 25 29 mph 1014mb 62f 63f
3:50pm 4ft 8s 4s 25 29 mph 1014.6mb 62f 62f
2:50pm 4ft 9s 4s 22 27 mph 1015.2mb 63f 63f
1:50pm 3.5ft 8s 5s 20 25 mph 1016mb 63f 63f
12:50pm 3.5ft 8s 5s 16 20 mph 1016.6mb 62f 62f
11:50am 3.5ft 9s 5s 16 18 mph 1017.2mb 62f 62f
10:50am 3.5ft 8s 5s 13 18 mph 1017.6mb 62f 62f
9:50am 3.5ft 8s 5s 13 16 mph 1017.3mb 61f 61f
8:50am 4ft 8s 5s 13 18 mph 1017.2mb 62f 61f
7:50am 4.5ft 8s 5s 18 20 mph 1016.8mb 62f 60f
6:50am 4ft 8s 5s 18
mph
1016.4mb 62f 61f
5:50am 4.5ft 8s 5s 18 20 mph 1015.8mb 62f 61f
4:50am 4ft 9s 5s 18 22 mph 1015.5mb 62f 62f
3:50am 4ft 9s 5s 18 22 mph 1014.9mb 62f 63f
2:50am 4ft 8s 5s 20 22 mph 1015.2mb 63f 63f
1:50am 4ft 8s 5s 22 25 mph 1015.3mb 63f 62f
12:50am 3.5ft 8s 5s 22 25 mph 1015.6mb 64f 63f
Mon 07/28 11:50pm 3.5ft 8s 5s 20 22 mph 1015.9mb 63f 63f
10:50pm 3.5ft 8s 5s 18 20 mph 1016.3mb 62f 63f
9:50pm 3.5ft 9s 5s 16 20 mph 1016.9mb 63f 64f
7:50pm 3.5ft 8s 5s 13 16 mph 1016.1mb 64f 64f
6:50pm 3.5ft 8s 5s 16 18 mph 1015.9mb 64f 65f
5:50pm 3ft 8s 5s 13 18 mph 1016.1mb 65f 65f
4:50pm 3ft 8s 6s 13 16 mph 1016.4mb 65f 65f
3:50pm 3ft 8s 7s 11 13 mph 1016.7mb 65f 65f
2:50pm 3.5ft 9s 7s 11 13 mph 1017.1mb 65f 64f
1:50pm 3.5ft 8s 7s 11 13 mph 1017.4mb 64f 63f
12:50pm 3.5ft 14s 7s 11 13 mph 1017.9mb 65f 62f
11:50am 3ft 7s 7s 9 11 mph 1018.2mb 64f 62f
10:50am 3.5ft 8s 7s 11 13 mph 1018.2mb 64f 63f
9:50am 3.5ft 8s 7s 2
mph
1017.8mb 64f 64f
8:50am 3.5ft 8s 6s 7 9 mph 1017.3mb 64f 64f
7:50am 3.5ft 8s 6s 4 7 mph 1017mb 64f 64f
6:50am 3.5ft 8s 6s 9
mph
1016.3mb 64f 64f
5:50am 3.5ft 14s 5s 11 13 mph 1016.1mb 64f 63f
4:50am 3.5ft 8s 5s 16 18 mph 1015.7mb 64f 63f
3:50am 4ft 9s 5s 16
mph
1015.4mb 64f 63f
2:50am 4ft 8s 5s 16 18 mph 1014.8mb 64f 63f
1:50am 4ft 9s 5s 18 22 mph 1014.4mb 65f 63f
12:50am 4ft 8s 5s 22 25 mph 1014.4mb 65f 63f
Sun 07/27 11:50pm 4.5ft 4s 5s 22 25 mph 1014.2mb 65f 62f
10:50pm 3.5ft 4s 4s 20 25 mph 1014.1mb 65f 62f
9:50pm 3.5ft 8s 5s 20 25 mph 1014mb 64f 62f
8:50pm 3.5ft 8s 5s 20 22 mph 1013.7mb 64f 63f
7:50pm 3.5ft 8s 6s 18 20 mph 1013.6mb 65f 64f
6:50pm 3.5ft 8s 7s 13 16 mph 1013.7mb 66f 65f
5:50pm 3ft 8s 7s 11 13 mph 1014.4mb 66f 65f
4:50pm 3ft 8s 7s 7 11 mph 1015.4mb 67f 65f
3:50pm 3ft 8s 7s 4
mph
1016.1mb 67f 65f
2:50pm 3ft 8s 7s 2 4 mph 1016mb 66f 63f
1:50pm 3.5ft 15s 7s 2 4 mph 1016.2mb 65f 63f
12:50pm 3ft 8s 7s 4 7 mph 1016mb 65f 62f
11:50am 3.5ft 8s 7s 4 7 mph 1015.9mb 65f 61f
10:50am 3.5ft 8s 7s 4 7 mph 1016mb 64f 60f
9:50am 3.5ft 8s 7s 4 7 mph 1016.2mb 64f 60f
8:50am 3.5ft 8s 7s 7 9 mph 1015.7mb 64f 60f
7:50am 3.5ft 8s 7s 9 11 mph 1015.1mb 64f 60f
6:50am 3.5ft 8s 7s 11 16 mph 1014.3mb 64f 61f
5:50am 3.5ft 9s 7s 7 9 mph 1014.2mb 64f 61f
4:50am 4ft 9s 7s 7 9 mph 1014.3mb 64f 60f
3:50am 3.5ft 9s 7s 7 9 mph 1014.5mb 63f 60f
2:50am 4ft 9s 7s 11 13 mph 1014.3mb 63f 61f
1:50am 4ft 9s 7s 9
mph
1014.2mb 63f 60f
12:50am 3ft 8s 6s 9 11 mph 1014.2mb 63f 60f
Sat 07/26 11:50pm 3.5ft 9s 6s 11 16 mph 1014.1mb 63f 61f
10:50pm 4ft 9s 6s 13 16 mph 1013.8mb 63f 62f
9:50pm 4ft 9s 6s 11 13 mph 1013.8mb 64f 63f
8:50pm 4.5ft 10s 7s 11 13 mph 1013.5mb 64f 63f
7:50pm 5ft 10s 7s 11 13 mph 1013.3mb 64f 63f
6:50pm 4.5ft 9s 8s 11 13 mph 1013.1mb 65f 64f